sensor_id;sensor_type;location;lat;lon;timestamp;temperature;humidity
43015;DHT22;28637;50.554;7.032;2024-01-15T00:01:53;0.90;99.90
43015;DHT22;28637;50.554;7.032;2024-01-15T00:06:53;0.90;99.90
43015;DHT22;28637;50.554;7.032;2024-01-15T00:11:54;0.90;99.90
43015;DHT22;28637;50.554;7.032;2024-01-15T00:16:55;0.90;99.90
43015;DHT22;28637;50.554;7.032;2024-01-15T00:21:55;0.90;99.90
43015;DHT22;28637;50.554;7.032;2024-01-15T00:26:57;0.90;99.90
43015;DHT22;28637;50.554;7.032;2024-01-15T00:31:58;0.90;99.90
43015;DHT22;28637;50.554;7.032;2024-01-15T00:36:58;0.80;99.90
43015;DHT22;28637;50.554;7.032;2024-01-15T00:41:59;0.80;99.90
43015;DHT22;28637;50.554;7.032;2024-01-15T00:47:00;0.70;99.90
43015;DHT22;28637;50.554;7.032;2024-01-15T00:52:02;0.60;99.90
43015;DHT22;28637;50.554;7.032;2024-01-15T00:57:03;0.50;99.90
43015;DHT22;28637;50.554;7.032;2024-01-15T01:02:03;0.40;99.90
43015;DHT22;28637;50.554;7.032;2024-01-15T01:07:04;0.40;99.90
43015;DHT22;28637;50.554;7.032;2024-01-15T01:12:05;0.20;99.90
43015;DHT22;28637;50.554;7.032;2024-01-15T01:17:06;0.20;99.90
43015;DHT22;28637;50.554;7.032;2024-01-15T01:22:06;0.30;99.90
43015;DHT22;28637;50.554;7.032;2024-01-15T01:27:07;0.40;99.90
43015;DHT22;28637;50.554;7.032;2024-01-15T01:32:08;0.40;99.90
43015;DHT22;28637;50.554;7.032;2024-01-15T01:37:10;0.50;99.90
43015;DHT22;28637;50.554;7.032;2024-01-15T01:42:13;0.50;99.90
43015;DHT22;28637;50.554;7.032;2024-01-15T01:47:14;0.40;99.90
43015;DHT22;28637;50.554;7.032;2024-01-15T01:52:15;0.40;99.90
43015;DHT22;28637;50.554;7.032;2024-01-15T01:57:17;0.50;99.90
43015;DHT22;28637;50.554;7.032;2024-01-15T02:02:19;0.50;99.90
43015;DHT22;28637;50.554;7.032;2024-01-15T02:07:21;0.70;99.90
43015;DHT22;28637;50.554;7.032;2024-01-15T02:12:23;0.80;99.90
43015;DHT22;28637;50.554;7.032;2024-01-15T02:17:23;0.80;99.90
43015;DHT22;28637;50.554;7.032;2024-01-15T02:22:24;0.90;99.90
43015;DHT22;28637;50.554;7.032;2024-01-15T02:27:25;0.90;99.90
43015;DHT22;28637;50.554;7.032;2024-01-15T02:32:26;0.90;99.90
43015;DHT22;28637;50.554;7.032;2024-01-15T02:37:26;0.80;99.90
43015;DHT22;28637;50.554;7.032;2024-01-15T02:42:27;0.80;99.90
43015;DHT22;28637;50.554;7.032;2024-01-15T02:47:28;0.90;99.90
43015;DHT22;28637;50.554;7.032;2024-01-15T02:52:28;0.80;99.90
43015;DHT22;28637;50.554;7.032;2024-01-15T02:57:29;0.70;99.90
43015;DHT22;28637;50.554;7.032;2024-01-15T03:02:30;0.60;99.90
43015;DHT22;28637;50.554;7.032;2024-01-15T03:07:32;0.50;99.90
43015;DHT22;28637;50.554;7.032;2024-01-15T03:12:32;0.50;99.90
43015;DHT22;28637;50.554;7.032;2024-01-15T03:17:33;0.40;99.90
43015;DHT22;28637;50.554;7.032;2024-01-15T03:22:34;0.40;99.90
43015;DHT22;28637;50.554;7.032;2024-01-15T03:27:34;0.30;99.90
43015;DHT22;28637;50.554;7.032;2024-01-15T03:32:35;0.30;99.90
43015;DHT22;28637;50.554;7.032;2024-01-15T03:37:36;0.20;99.90
43015;DHT22;28637;50.554;7.032;2024-01-15T03:42:36;0.20;99.90
43015;DHT22;28637;50.554;7.032;2024-01-15T03:47:37;0.10;99.90
43015;DHT22;28637;50.554;7.032;2024-01-15T03:52:38;0.10;99.90
43015;DHT22;28637;50.554;7.032;2024-01-15T03:57:38;-0.10;99.90
43015;DHT22;28637;50.554;7.032;2024-01-15T04:02:39;0.00;99.90
43015;DHT22;28637;50.554;7.032;2024-01-15T04:07:40;0.00;99.90
43015;DHT22;28637;50.554;7.032;2024-01-15T04:12:40;0.00;99.90
43015;DHT22;28637;50.554;7.032;2024-01-15T04:17:41;0.00;99.90
43015;DHT22;28637;50.554;7.032;2024-01-15T04:22:42;-0.10;99.90
43015;DHT22;28637;50.554;7.032;2024-01-15T04:27:43;-0.10;99.90
43015;DHT22;28637;50.554;7.032;2024-01-15T04:32:44;-0.10;99.90
43015;DHT22;28637;50.554;7.032;2024-01-15T04:37:45;-0.20;99.90
43015;DHT22;28637;50.554;7.032;2024-01-15T04:42:45;-0.20;99.90
43015;DHT22;28637;50.554;7.032;2024-01-15T04:47:46;-0.20;99.90
43015;DHT22;28637;50.554;7.032;2024-01-15T04:52:47;-0.10;99.90
43015;DHT22;28637;50.554;7.032;2024-01-15T04:57:49;-0.10;99.90
43015;DHT22;28637;50.554;7.032;2024-01-15T05:02:49;-0.10;99.90
43015;DHT22;28637;50.554;7.032;2024-01-15T05:07:50;-0.10;99.90
43015;DHT22;28637;50.554;7.032;2024-01-15T05:12:51;0.00;99.90
43015;DHT22;28637;50.554;7.032;2024-01-15T05:17:51;0.00;99.90
43015;DHT22;28637;50.554;7.032;2024-01-15T05:22:52;0.00;99.90
43015;DHT22;28637;50.554;7.032;2024-01-15T05:27:53;0.00;99.90
43015;DHT22;28637;50.554;7.032;2024-01-15T05:32:53;0.10;99.90
43015;DHT22;28637;50.554;7.032;2024-01-15T05:37:54;0.10;99.90
43015;DHT22;28637;50.554;7.032;2024-01-15T05:42:55;0.00;99.90
43015;DHT22;28637;50.554;7.032;2024-01-15T05:47:55;0.10;99.90
43015;DHT22;28637;50.554;7.032;2024-01-15T05:52:56;0.10;99.90
43015;DHT22;28637;50.554;7.032;2024-01-15T05:57:57;0.10;99.90
43015;DHT22;28637;50.554;7.032;2024-01-15T06:02:57;0.10;99.90
43015;DHT22;28637;50.554;7.032;2024-01-15T06:07:58;0.40;99.90
43015;DHT22;28637;50.554;7.032;2024-01-15T06:12:59;0.20;99.90
43015;DHT22;28637;50.554;7.032;2024-01-15T06:17:59;0.10;99.90
43015;DHT22;28637;50.554;7.032;2024-01-15T06:23:00;0.10;99.90
43015;DHT22;28637;50.554;7.032;2024-01-15T06:28:01;0.00;99.90
43015;DHT22;28637;50.554;7.032;2024-01-15T06:33:01;0.00;99.90
43015;DHT22;28637;50.554;7.032;2024-01-15T06:38:02;-0.20;99.90
43015;DHT22;28637;50.554;7.032;2024-01-15T06:43:03;-0.30;99.90
43015;DHT22;28637;50.554;7.032;2024-01-15T06:48:04;-0.30;99.90
43015;DHT22;28637;50.554;7.032;2024-01-15T06:53:05;-0.30;99.90
43015;DHT22;28637;50.554;7.032;2024-01-15T06:58:06;-0.30;99.90
43015;DHT22;28637;50.554;7.032;2024-01-15T07:03:06;-0.30;99.90
43015;DHT22;28637;50.554;7.032;2024-01-15T07:08:07;-0.40;99.90
43015;DHT22;28637;50.554;7.032;2024-01-15T07:13:08;-0.40;99.90
43015;DHT22;28637;50.554;7.032;2024-01-15T07:18:09;-0.40;99.90
43015;DHT22;28637;50.554;7.032;2024-01-15T07:23:10;-0.50;99.90
43015;DHT22;28637;50.554;7.032;2024-01-15T07:28:10;-0.50;99.90
43015;DHT22;28637;50.554;7.032;2024-01-15T07:33:11;-0.40;99.90
43015;DHT22;28637;50.554;7.032;2024-01-15T07:38:12;-0.30;99.90
43015;DHT22;28637;50.554;7.032;2024-01-15T07:43:13;-0.40;99.90
43015;DHT22;28637;50.554;7.032;2024-01-15T07:48:14;-0.40;99.90
43015;DHT22;28637;50.554;7.032;2024-01-15T07:53:14;-0.30;99.90
43015;DHT22;28637;50.554;7.032;2024-01-15T07:58:15;-0.20;99.90
43015;DHT22;28637;50.554;7.032;2024-01-15T08:03:16;-0.20;99.90
43015;DHT22;28637;50.554;7.032;2024-01-15T08:08:17;-0.20;99.90
43015;DHT22;28637;50.554;7.032;2024-01-15T08:13:17;-0.10;99.90
43015;DHT22;28637;50.554;7.032;2024-01-15T08:18:19;-0.10;99.90
43015;DHT22;28637;50.554;7.032;2024-01-15T08:23:22;-0.10;99.90
43015;DHT22;28637;50.554;7.032;2024-01-15T08:28:22;0.00;99.90
43015;DHT22;28637;50.554;7.032;2024-01-15T08:33:23;0.10;99.90
43015;DHT22;28637;50.554;7.032;2024-01-15T08:38:24;0.20;99.90
43015;DHT22;28637;50.554;7.032;2024-01-15T08:43:26;0.40;99.90
43015;DHT22;28637;50.554;7.032;2024-01-15T08:48:27;0.40;99.90
43015;DHT22;28637;50.554;7.032;2024-01-15T08:53:28;0.40;99.90
43015;DHT22;28637;50.554;7.032;2024-01-15T08:58:28;0.50;99.90
43015;DHT22;28637;50.554;7.032;2024-01-15T09:03:30;0.60;99.90
43015;DHT22;28637;50.554;7.032;2024-01-15T09:08:30;0.70;99.90
43015;DHT22;28637;50.554;7.032;2024-01-15T09:13:31;0.90;99.90
43015;DHT22;28637;50.554;7.032;2024-01-15T09:18:32;0.90;99.90
43015;DHT22;28637;50.554;7.032;2024-01-15T09:23:32;0.90;99.90
43015;DHT22;28637;50.554;7.032;2024-01-15T09:28:33;1.10;99.90
43015;DHT22;28637;50.554;7.032;2024-01-15T09:33:34;1.30;99.90
43015;DHT22;28637;50.554;7.032;2024-01-15T09:38:35;1.30;99.90
43015;DHT22;28637;50.554;7.032;2024-01-15T09:43:37;1.30;99.90
43015;DHT22;28637;50.554;7.032;2024-01-15T09:48:38;1.40;99.90
43015;DHT22;28637;50.554;7.032;2024-01-15T09:53:40;1.40;99.90
43015;DHT22;28637;50.554;7.032;2024-01-15T09:58:42;1.40;99.90
43015;DHT22;28637;50.554;7.032;2024-01-15T10:03:44;1.50;99.90
43015;DHT22;28637;50.554;7.032;2024-01-15T10:08:51;1.50;99.90
43015;DHT22;28637;50.554;7.032;2024-01-15T10:13:52;1.60;99.90
43015;DHT22;28637;50.554;7.032;2024-01-15T10:18:53;1.90;99.90
43015;DHT22;28637;50.554;7.032;2024-01-15T10:23:55;1.80;99.90
43015;DHT22;28637;50.554;7.032;2024-01-15T10:28:55;1.80;99.90
43015;DHT22;28637;50.554;7.032;2024-01-15T10:34:12;1.80;99.90
43015;DHT22;28637;50.554;7.032;2024-01-15T10:39:15;1.80;99.90
43015;DHT22;28637;50.554;7.032;2024-01-15T10:44:17;1.80;99.90
43015;DHT22;28637;50.554;7.032;2024-01-15T10:49:18;1.80;99.90
43015;DHT22;28637;50.554;7.032;2024-01-15T10:54:21;1.90;99.90
43015;DHT22;28637;50.554;7.032;2024-01-15T10:59:23;1.90;99.90
43015;DHT22;28637;50.554;7.032;2024-01-15T11:04:24;1.90;99.90
43015;DHT22;28637;50.554;7.032;2024-01-15T11:09:28;1.90;99.90
43015;DHT22;28637;50.554;7.032;2024-01-15T11:14:45;1.90;99.90
43015;DHT22;28637;50.554;7.032;2024-01-15T11:19:48;2.00;99.90
43015;DHT22;28637;50.554;7.032;2024-01-15T11:24:51;2.00;99.90
43015;DHT22;28637;50.554;7.032;2024-01-15T11:30:03;2.20;99.90
43015;DHT22;28637;50.554;7.032;2024-01-15T11:35:05;2.00;99.90
43015;DHT22;28637;50.554;7.032;2024-01-15T11:40:08;1.70;99.90
43015;DHT22;28637;50.554;7.032;2024-01-15T11:45:11;1.60;99.90
43015;DHT22;28637;50.554;7.032;2024-01-15T11:50:12;1.50;99.90
43015;DHT22;28637;50.554;7.032;2024-01-15T12:00:23;1.60;99.90
43015;DHT22;28637;50.554;7.032;2024-01-15T12:05:24;1.90;99.90
43015;DHT22;28637;50.554;7.032;2024-01-15T12:10:24;1.90;99.90
43015;DHT22;28637;50.554;7.032;2024-01-15T12:15:27;2.00;99.90
43015;DHT22;28637;50.554;7.032;2024-01-15T12:20:32;2.10;99.90
43015;DHT22;28637;50.554;7.032;2024-01-15T12:25:34;2.10;99.90
43015;DHT22;28637;50.554;7.032;2024-01-15T12:30:35;2.00;99.90
43015;DHT22;28637;50.554;7.032;2024-01-15T12:35:37;1.90;99.90
43015;DHT22;28637;50.554;7.032;2024-01-15T12:40:38;2.00;99.90
43015;DHT22;28637;50.554;7.032;2024-01-15T12:45:40;2.10;99.90
43015;DHT22;28637;50.554;7.032;2024-01-15T12:50:42;2.10;99.90
43015;DHT22;28637;50.554;7.032;2024-01-15T12:55:43;2.10;99.90
43015;DHT22;28637;50.554;7.032;2024-01-15T13:00:44;2.10;99.90
43015;DHT22;28637;50.554;7.032;2024-01-15T13:05:45;2.30;99.90
43015;DHT22;28637;50.554;7.032;2024-01-15T13:10:45;2.60;99.90
43015;DHT22;28637;50.554;7.032;2024-01-15T13:15:46;2.50;99.90
43015;DHT22;28637;50.554;7.032;2024-01-15T13:20:47;2.30;99.90
43015;DHT22;28637;50.554;7.032;2024-01-15T13:25:47;2.30;99.90
43015;DHT22;28637;50.554;7.032;2024-01-15T13:30:48;2.40;99.90
43015;DHT22;28637;50.554;7.032;2024-01-15T13:35:49;2.20;99.90
43015;DHT22;28637;50.554;7.032;2024-01-15T13:40:50;1.90;99.90
43015;DHT22;28637;50.554;7.032;2024-01-15T13:45:51;1.70;99.90
43015;DHT22;28637;50.554;7.032;2024-01-15T13:50:53;1.70;99.90
43015;DHT22;28637;50.554;7.032;2024-01-15T13:55:53;1.80;99.90
43015;DHT22;28637;50.554;7.032;2024-01-15T14:00:54;1.80;99.90
43015;DHT22;28637;50.554;7.032;2024-01-15T14:05:55;1.50;99.90
43015;DHT22;28637;50.554;7.032;2024-01-15T14:10:56;1.50;99.90
43015;DHT22;28637;50.554;7.032;2024-01-15T14:15:57;1.50;99.90
43015;DHT22;28637;50.554;7.032;2024-01-15T14:20:58;1.70;99.90
43015;DHT22;28637;50.554;7.032;2024-01-15T14:25:58;1.60;99.90
43015;DHT22;28637;50.554;7.032;2024-01-15T14:30:59;1.60;99.90
43015;DHT22;28637;50.554;7.032;2024-01-15T14:36:00;1.50;99.90
43015;DHT22;28637;50.554;7.032;2024-01-15T14:41:01;1.40;99.90
43015;DHT22;28637;50.554;7.032;2024-01-15T14:46:02;1.40;99.90
43015;DHT22;28637;50.554;7.032;2024-01-15T14:51:03;1.40;99.90
43015;DHT22;28637;50.554;7.032;2024-01-15T14:56:03;1.40;99.90
43015;DHT22;28637;50.554;7.032;2024-01-15T15:01:04;1.40;99.90
43015;DHT22;28637;50.554;7.032;2024-01-15T15:06:05;1.40;99.90
43015;DHT22;28637;50.554;7.032;2024-01-15T15:11:08;1.40;99.90
43015;DHT22;28637;50.554;7.032;2024-01-15T15:16:08;1.40;99.90
43015;DHT22;28637;50.554;7.032;2024-01-15T15:21:12;1.40;99.90
43015;DHT22;28637;50.554;7.032;2024-01-15T15:26:13;1.40;99.90
43015;DHT22;28637;50.554;7.032;2024-01-15T15:31:14;1.40;99.90
43015;DHT22;28637;50.554;7.032;2024-01-15T15:36:15;1.40;99.90
43015;DHT22;28637;50.554;7.032;2024-01-15T15:41:15;1.40;99.90
43015;DHT22;28637;50.554;7.032;2024-01-15T15:46:16;1.40;99.90
43015;DHT22;28637;50.554;7.032;2024-01-15T15:51:17;1.40;99.90
43015;DHT22;28637;50.554;7.032;2024-01-15T15:56:17;1.40;99.90
43015;DHT22;28637;50.554;7.032;2024-01-15T16:01:18;1.30;99.90
43015;DHT22;28637;50.554;7.032;2024-01-15T16:06:19;1.10;99.90
43015;DHT22;28637;50.554;7.032;2024-01-15T16:11:20;1.10;99.90
43015;DHT22;28637;50.554;7.032;2024-01-15T16:16:21;1.10;99.90
43015;DHT22;28637;50.554;7.032;2024-01-15T16:21:22;1.10;99.90
43015;DHT22;28637;50.554;7.032;2024-01-15T16:26:23;1.20;99.90
43015;DHT22;28637;50.554;7.032;2024-01-15T16:31:23;1.20;99.90
43015;DHT22;28637;50.554;7.032;2024-01-15T16:36:24;1.20;99.90
43015;DHT22;28637;50.554;7.032;2024-01-15T16:41:25;1.10;99.90
43015;DHT22;28637;50.554;7.032;2024-01-15T16:46:26;1.10;99.90
43015;DHT22;28637;50.554;7.032;2024-01-15T16:51:26;1.10;99.90
43015;DHT22;28637;50.554;7.032;2024-01-15T16:56:27;1.40;99.90
43015;DHT22;28637;50.554;7.032;2024-01-15T17:01:28;1.30;99.90
43015;DHT22;28637;50.554;7.032;2024-01-15T17:06:28;1.10;99.90
43015;DHT22;28637;50.554;7.032;2024-01-15T17:11:29;1.20;99.90
43015;DHT22;28637;50.554;7.032;2024-01-15T17:16:30;1.10;99.90
43015;DHT22;28637;50.554;7.032;2024-01-15T17:21:30;1.00;99.90
43015;DHT22;28637;50.554;7.032;2024-01-15T17:26:31;0.90;99.90
43015;DHT22;28637;50.554;7.032;2024-01-15T17:31:32;0.80;99.90
43015;DHT22;28637;50.554;7.032;2024-01-15T17:36:32;0.80;99.90
43015;DHT22;28637;50.554;7.032;2024-01-15T17:41:33;0.70;99.90
43015;DHT22;28637;50.554;7.032;2024-01-15T17:46:34;0.80;99.90
43015;DHT22;28637;50.554;7.032;2024-01-15T17:51:35;0.80;99.90
43015;DHT22;28637;50.554;7.032;2024-01-15T17:56:36;0.90;99.90
43015;DHT22;28637;50.554;7.032;2024-01-15T18:01:37;0.90;99.90
43015;DHT22;28637;50.554;7.032;2024-01-15T18:06:42;0.90;99.90
43015;DHT22;28637;50.554;7.032;2024-01-15T18:11:43;0.80;99.90
43015;DHT22;28637;50.554;7.032;2024-01-15T18:16:44;0.70;99.90
43015;DHT22;28637;50.554;7.032;2024-01-15T18:21:48;0.60;99.90
43015;DHT22;28637;50.554;7.032;2024-01-15T18:26:50;0.60;99.90
43015;DHT22;28637;50.554;7.032;2024-01-15T18:31:52;0.50;99.90
43015;DHT22;28637;50.554;7.032;2024-01-15T18:36:53;0.50;99.90
43015;DHT22;28637;50.554;7.032;2024-01-15T18:41:54;0.60;99.90
43015;DHT22;28637;50.554;7.032;2024-01-15T18:46:54;0.60;99.90
43015;DHT22;28637;50.554;7.032;2024-01-15T18:51:55;0.60;99.90
43015;DHT22;28637;50.554;7.032;2024-01-15T18:56:57;0.70;99.90
43015;DHT22;28637;50.554;7.032;2024-01-15T19:01:58;0.60;99.90
43015;DHT22;28637;50.554;7.032;2024-01-15T19:06:59;0.60;99.90
43015;DHT22;28637;50.554;7.032;2024-01-15T19:12:00;0.50;99.90
43015;DHT22;28637;50.554;7.032;2024-01-15T19:17:01;0.50;99.90
43015;DHT22;28637;50.554;7.032;2024-01-15T19:22:04;0.50;99.90
43015;DHT22;28637;50.554;7.032;2024-01-15T19:27:05;0.50;99.90
43015;DHT22;28637;50.554;7.032;2024-01-15T19:32:06;0.50;99.90
43015;DHT22;28637;50.554;7.032;2024-01-15T19:37:06;0.50;99.90
43015;DHT22;28637;50.554;7.032;2024-01-15T19:42:07;0.50;99.90
43015;DHT22;28637;50.554;7.032;2024-01-15T19:47:08;0.40;99.90
43015;DHT22;28637;50.554;7.032;2024-01-15T19:52:09;0.40;99.90
43015;DHT22;28637;50.554;7.032;2024-01-15T19:57:10;0.40;99.90
43015;DHT22;28637;50.554;7.032;2024-01-15T20:02:11;0.30;99.90
43015;DHT22;28637;50.554;7.032;2024-01-15T20:07:11;0.40;99.90
43015;DHT22;28637;50.554;7.032;2024-01-15T20:12:12;0.50;99.90
43015;DHT22;28637;50.554;7.032;2024-01-15T20:17:13;0.40;99.90
43015;DHT22;28637;50.554;7.032;2024-01-15T20:22:13;0.40;99.90
43015;DHT22;28637;50.554;7.032;2024-01-15T20:27:14;0.40;99.90
43015;DHT22;28637;50.554;7.032;2024-01-15T20:32:16;0.40;99.90
43015;DHT22;28637;50.554;7.032;2024-01-15T20:37:18;0.90;99.90
43015;DHT22;28637;50.554;7.032;2024-01-15T20:42:19;0.60;99.90
43015;DHT22;28637;50.554;7.032;2024-01-15T20:47:20;0.50;99.90
43015;DHT22;28637;50.554;7.032;2024-01-15T20:52:21;0.30;99.90
43015;DHT22;28637;50.554;7.032;2024-01-15T20:57:22;0.20;99.90
43015;DHT22;28637;50.554;7.032;2024-01-15T21:02:22;0.20;99.90
43015;DHT22;28637;50.554;7.032;2024-01-15T21:07:23;0.20;99.90
43015;DHT22;28637;50.554;7.032;2024-01-15T21:12:24;0.10;99.90
43015;DHT22;28637;50.554;7.032;2024-01-15T21:17:26;0.10;99.90
43015;DHT22;28637;50.554;7.032;2024-01-15T21:22:26;0.10;99.90
43015;DHT22;28637;50.554;7.032;2024-01-15T21:27:29;0.20;99.90
43015;DHT22;28637;50.554;7.032;2024-01-15T21:32:30;0.10;99.90
43015;DHT22;28637;50.554;7.032;2024-01-15T21:37:32;0.20;99.90
43015;DHT22;28637;50.554;7.032;2024-01-15T21:42:33;0.10;99.90
43015;DHT22;28637;50.554;7.032;2024-01-15T21:47:37;0.20;99.90
43015;DHT22;28637;50.554;7.032;2024-01-15T21:52:38;0.20;99.90
43015;DHT22;28637;50.554;7.032;2024-01-15T21:57:39;0.20;99.90
43015;DHT22;28637;50.554;7.032;2024-01-15T22:02:40;0.20;99.90
43015;DHT22;28637;50.554;7.032;2024-01-15T22:07:42;0.30;99.90
43015;DHT22;28637;50.554;7.032;2024-01-15T22:12:44;0.50;99.90
43015;DHT22;28637;50.554;7.032;2024-01-15T22:17:44;0.50;99.90
43015;DHT22;28637;50.554;7.032;2024-01-15T22:22:45;0.60;99.90
43015;DHT22;28637;50.554;7.032;2024-01-15T22:27:46;0.70;99.90
43015;DHT22;28637;50.554;7.032;2024-01-15T22:32:48;0.70;99.90
43015;DHT22;28637;50.554;7.032;2024-01-15T22:37:49;0.70;99.90
43015;DHT22;28637;50.554;7.032;2024-01-15T22:42:51;0.80;99.90
43015;DHT22;28637;50.554;7.032;2024-01-15T22:47:52;0.80;99.90
43015;DHT22;28637;50.554;7.032;2024-01-15T22:52:52;0.80;99.90
43015;DHT22;28637;50.554;7.032;2024-01-15T22:57:53;0.90;99.90
43015;DHT22;28637;50.554;7.032;2024-01-15T23:02:54;0.90;99.90
43015;DHT22;28637;50.554;7.032;2024-01-15T23:07:57;1.00;99.90
43015;DHT22;28637;50.554;7.032;2024-01-15T23:12:58;1.00;99.90
43015;DHT22;28637;50.554;7.032;2024-01-15T23:17:59;1.10;99.90
43015;DHT22;28637;50.554;7.032;2024-01-15T23:23:00;1.10;99.90
43015;DHT22;28637;50.554;7.032;2024-01-15T23:28:01;1.20;99.90
43015;DHT22;28637;50.554;7.032;2024-01-15T23:33:03;1.20;99.90
43015;DHT22;28637;50.554;7.032;2024-01-15T23:38:04;1.20;99.90
43015;DHT22;28637;50.554;7.032;2024-01-15T23:43:06;1.20;99.90
43015;DHT22;28637;50.554;7.032;2024-01-15T23:48:07;1.30;99.90
43015;DHT22;28637;50.554;7.032;2024-01-15T23:53:08;1.20;99.90
43015;DHT22;28637;50.554;7.032;2024-01-15T23:58:09;1.20;99.90
